sensor_id;sensor_type;location;lat;lon;timestamp;P1;durP1;ratioP1;P2;durP2;ratioP2
48268;SDS011;34088;52.232;5.196;2023-02-15T00:01:38;73.85;;;42.33;;
48268;SDS011;34088;52.232;5.196;2023-02-15T00:06:30;74.35;;;41.00;;
48268;SDS011;34088;52.232;5.196;2023-02-15T00:11:21;73.35;;;42.75;;
48268;SDS011;34088;52.232;5.196;2023-02-15T00:14:12;70.68;;;41.72;;
48268;SDS011;34088;52.232;5.196;2023-02-15T00:16:39;70.40;;;41.45;;
48268;SDS011;34088;52.232;5.196;2023-02-15T00:33:03;68.60;;;37.43;;
48268;SDS011;34088;52.232;5.196;2023-02-15T00:35:28;65.43;;;38.63;;
48268;SDS011;34088;52.232;5.196;2023-02-15T00:37:55;72.10;;;39.70;;
48268;SDS011;34088;52.232;5.196;2023-02-15T00:40:21;72.90;;;40.35;;
48268;SDS011;34088;52.232;5.196;2023-02-15T00:45:12;67.55;;;39.05;;
48268;SDS011;34088;52.232;5.196;2023-02-15T00:47:37;66.90;;;39.38;;
48268;SDS011;34088;52.232;5.196;2023-02-15T00:50:03;70.05;;;41.33;;
48268;SDS011;34088;52.232;5.196;2023-02-15T00:52:30;69.70;;;39.88;;
48268;SDS011;34088;52.232;5.196;2023-02-15T00:57:21;82.95;;;46.25;;
48268;SDS011;34088;52.232;5.196;2023-02-15T00:59:46;81.30;;;46.38;;
48268;SDS011;34088;52.232;5.196;2023-02-15T01:04:37;83.05;;;47.65;;
48268;SDS011;34088;52.232;5.196;2023-02-15T01:09:29;83.00;;;46.03;;
48268;SDS011;34088;52.232;5.196;2023-02-15T01:11:54;85.85;;;46.50;;
48268;SDS011;34088;52.232;5.196;2023-02-15T01:16:45;80.80;;;45.80;;
48268;SDS011;34088;52.232;5.196;2023-02-15T01:21:36;78.75;;;45.72;;
48268;SDS011;34088;52.232;5.196;2023-02-15T01:24:02;84.90;;;48.00;;
48268;SDS011;34088;52.232;5.196;2023-02-15T01:28:53;86.68;;;48.65;;
48268;SDS011;34088;52.232;5.196;2023-02-15T01:33:46;107.78;;;57.33;;
48268;SDS011;34088;52.232;5.196;2023-02-15T01:36:12;111.78;;;58.90;;
48268;SDS011;34088;52.232;5.196;2023-02-15T01:41:04;106.40;;;55.70;;
48268;SDS011;34088;52.232;5.196;2023-02-15T01:43:49;110.15;;;56.60;;
48268;SDS011;34088;52.232;5.196;2023-02-15T01:46:37;111.72;;;58.38;;
48268;SDS011;34088;52.232;5.196;2023-02-15T01:49:07;115.68;;;57.97;;
48268;SDS011;34088;52.232;5.196;2023-02-15T01:51:39;115.13;;;59.83;;
48268;SDS011;34088;52.232;5.196;2023-02-15T01:54:11;114.38;;;58.75;;
48268;SDS011;34088;52.232;5.196;2023-02-15T01:56:42;114.35;;;58.13;;
48268;SDS011;34088;52.232;5.196;2023-02-15T01:59:19;114.95;;;58.92;;
48268;SDS011;34088;52.232;5.196;2023-02-15T02:01:46;106.03;;;56.97;;
48268;SDS011;34088;52.232;5.196;2023-02-15T02:06:41;107.25;;;57.33;;
48268;SDS011;34088;52.232;5.196;2023-02-15T02:11:32;100.40;;;55.72;;
48268;SDS011;34088;52.232;5.196;2023-02-15T02:13:58;98.50;;;54.58;;
48268;SDS011;34088;52.232;5.196;2023-02-15T02:27:21;100.50;;;54.58;;
48268;SDS011;34088;52.232;5.196;2023-02-15T02:30:01;102.10;;;53.17;;
48268;SDS011;34088;52.232;5.196;2023-02-15T02:43:47;98.32;;;53.92;;
48268;SDS011;34088;52.232;5.196;2023-02-15T02:46:58;101.35;;;53.97;;
48268;SDS011;34088;52.232;5.196;2023-02-15T02:49:30;91.43;;;53.38;;
48268;SDS011;34088;52.232;5.196;2023-02-15T02:55:01;92.47;;;51.95;;
48268;SDS011;34088;52.232;5.196;2023-02-15T02:57:36;91.88;;;51.95;;
48268;SDS011;34088;52.232;5.196;2023-02-15T03:00:05;93.28;;;52.40;;
48268;SDS011;34088;52.232;5.196;2023-02-15T03:02:34;93.95;;;52.65;;
48268;SDS011;34088;52.232;5.196;2023-02-15T03:05:04;90.53;;;52.10;;
48268;SDS011;34088;52.232;5.196;2023-02-15T03:07:33;85.00;;;49.85;;
48268;SDS011;34088;52.232;5.196;2023-02-15T03:10:01;91.53;;;52.65;;
48268;SDS011;34088;52.232;5.196;2023-02-15T03:12:32;86.35;;;49.47;;
48268;SDS011;34088;52.232;5.196;2023-02-15T03:20:10;96.15;;;51.22;;
48268;SDS011;34088;52.232;5.196;2023-02-15T03:22:48;88.75;;;48.80;;
48268;SDS011;34088;52.232;5.196;2023-02-15T03:25:19;82.80;;;50.05;;
48268;SDS011;34088;52.232;5.196;2023-02-15T03:27:49;88.15;;;49.72;;
48268;SDS011;34088;52.232;5.196;2023-02-15T03:30:17;90.60;;;51.78;;
48268;SDS011;34088;52.232;5.196;2023-02-15T03:32:44;88.95;;;49.75;;
48268;SDS011;34088;52.232;5.196;2023-02-15T03:35:11;96.90;;;52.03;;
48268;SDS011;34088;52.232;5.196;2023-02-15T03:40:17;95.70;;;52.22;;
48268;SDS011;34088;52.232;5.196;2023-02-15T03:43:14;103.88;;;53.33;;
48268;SDS011;34088;52.232;5.196;2023-02-15T03:45:45;102.25;;;54.17;;
48268;SDS011;34088;52.232;5.196;2023-02-15T03:48:27;97.72;;;53.38;;
48268;SDS011;34088;52.232;5.196;2023-02-15T03:50:58;102.68;;;53.83;;
48268;SDS011;34088;52.232;5.196;2023-02-15T03:53:46;95.97;;;52.58;;
48268;SDS011;34088;52.232;5.196;2023-02-15T03:56:12;104.13;;;53.55;;
48268;SDS011;34088;52.232;5.196;2023-02-15T04:04:18;95.13;;;51.85;;
48268;SDS011;34088;52.232;5.196;2023-02-15T04:06:46;97.28;;;53.22;;
48268;SDS011;34088;52.232;5.196;2023-02-15T04:09:12;85.85;;;49.85;;
48268;SDS011;34088;52.232;5.196;2023-02-15T04:11:56;88.43;;;50.15;;
48268;SDS011;34088;52.232;5.196;2023-02-15T04:17:06;85.45;;;49.08;;
48268;SDS011;34088;52.232;5.196;2023-02-15T04:19:32;85.13;;;48.85;;
48268;SDS011;34088;52.232;5.196;2023-02-15T04:22:17;87.82;;;50.05;;
48268;SDS011;34088;52.232;5.196;2023-02-15T04:25:01;92.63;;;51.88;;
48268;SDS011;34088;52.232;5.196;2023-02-15T04:27:40;89.03;;;49.67;;
48268;SDS011;34088;52.232;5.196;2023-02-15T04:30:10;86.50;;;48.58;;
48268;SDS011;34088;52.232;5.196;2023-02-15T04:32:37;96.93;;;52.00;;
48268;SDS011;34088;52.232;5.196;2023-02-15T04:35:03;94.25;;;51.05;;
48268;SDS011;34088;52.232;5.196;2023-02-15T04:37:30;88.28;;;49.67;;
48268;SDS011;34088;52.232;5.196;2023-02-15T04:44:49;85.15;;;46.47;;
48268;SDS011;34088;52.232;5.196;2023-02-15T04:49:40;78.05;;;45.78;;
48268;SDS011;34088;52.232;5.196;2023-02-15T04:52:06;75.35;;;45.90;;
48268;SDS011;34088;52.232;5.196;2023-02-15T04:54:31;77.82;;;45.83;;
48268;SDS011;34088;52.232;5.196;2023-02-15T04:59:22;80.15;;;44.85;;
48268;SDS011;34088;52.232;5.196;2023-02-15T05:01:48;81.13;;;46.03;;
48268;SDS011;34088;52.232;5.196;2023-02-15T05:06:39;80.28;;;44.95;;
48268;SDS011;34088;52.232;5.196;2023-02-15T05:09:04;75.47;;;44.17;;
48268;SDS011;34088;52.232;5.196;2023-02-15T05:11:30;77.47;;;42.53;;
48268;SDS011;34088;52.232;5.196;2023-02-15T05:13:55;77.85;;;45.25;;
48268;SDS011;34088;52.232;5.196;2023-02-15T05:18:47;69.75;;;41.00;;
48268;SDS011;34088;52.232;5.196;2023-02-15T05:21:12;76.03;;;43.15;;
48268;SDS011;34088;52.232;5.196;2023-02-15T05:23:41;73.38;;;42.28;;
48268;SDS011;34088;52.232;5.196;2023-02-15T05:28:53;74.25;;;42.33;;
48268;SDS011;34088;52.232;5.196;2023-02-15T05:33:44;76.50;;;42.25;;
48268;SDS011;34088;52.232;5.196;2023-02-15T05:38:36;76.30;;;44.50;;
48268;SDS011;34088;52.232;5.196;2023-02-15T05:41:03;71.75;;;42.72;;
48268;SDS011;34088;52.232;5.196;2023-02-15T05:43:29;71.38;;;41.95;;
48268;SDS011;34088;52.232;5.196;2023-02-15T05:45:55;72.95;;;41.97;;
48268;SDS011;34088;52.232;5.196;2023-02-15T05:50:56;68.82;;;41.20;;
48268;SDS011;34088;52.232;5.196;2023-02-15T05:53:23;71.73;;;40.37;;
48268;SDS011;34088;52.232;5.196;2023-02-15T05:58:14;64.25;;;38.60;;
48268;SDS011;34088;52.232;5.196;2023-02-15T06:00:39;69.97;;;40.28;;
48268;SDS011;34088;52.232;5.196;2023-02-15T06:05:30;67.50;;;39.63;;
48268;SDS011;34088;52.232;5.196;2023-02-15T06:10:21;73.53;;;41.67;;
48268;SDS011;34088;52.232;5.196;2023-02-15T06:12:47;68.95;;;39.38;;
48268;SDS011;34088;52.232;5.196;2023-02-15T06:15:13;72.35;;;41.30;;
48268;SDS011;34088;52.232;5.196;2023-02-15T06:20:06;66.80;;;39.40;;
48268;SDS011;34088;52.232;5.196;2023-02-15T06:22:33;71.38;;;40.22;;
48268;SDS011;34088;52.232;5.196;2023-02-15T06:27:24;67.70;;;39.58;;
48268;SDS011;34088;52.232;5.196;2023-02-15T06:32:15;68.20;;;38.40;;
48268;SDS011;34088;52.232;5.196;2023-02-15T06:37:06;59.58;;;35.70;;
48268;SDS011;34088;52.232;5.196;2023-02-15T06:39:33;63.42;;;37.42;;
48268;SDS011;34088;52.232;5.196;2023-02-15T06:44:24;65.35;;;36.85;;
48268;SDS011;34088;52.232;5.196;2023-02-15T06:46:50;61.17;;;37.03;;
48268;SDS011;34088;52.232;5.196;2023-02-15T06:51:41;60.95;;;35.97;;
48268;SDS011;34088;52.232;5.196;2023-02-15T06:56:32;65.35;;;36.13;;
48268;SDS011;34088;52.232;5.196;2023-02-15T07:01:26;68.75;;;37.35;;
48268;SDS011;34088;52.232;5.196;2023-02-15T07:06:17;67.95;;;37.50;;
48268;SDS011;34088;52.232;5.196;2023-02-15T07:11:08;61.92;;;34.92;;
48268;SDS011;34088;52.232;5.196;2023-02-15T07:13:52;64.38;;;34.83;;
48268;SDS011;34088;52.232;5.196;2023-02-15T07:18:44;60.42;;;35.03;;
48268;SDS011;34088;52.232;5.196;2023-02-15T07:23:35;73.88;;;39.70;;
48268;SDS011;34088;52.232;5.196;2023-02-15T07:26:04;69.57;;;38.05;;
48268;SDS011;34088;52.232;5.196;2023-02-15T07:28:31;64.18;;;35.40;;
48268;SDS011;34088;52.232;5.196;2023-02-15T07:30:57;70.95;;;36.22;;
48268;SDS011;34088;52.232;5.196;2023-02-15T07:35:59;69.88;;;36.75;;
48268;SDS011;34088;52.232;5.196;2023-02-15T07:38:27;70.65;;;36.00;;
48268;SDS011;34088;52.232;5.196;2023-02-15T07:41:01;65.80;;;35.92;;
48268;SDS011;34088;52.232;5.196;2023-02-15T07:43:28;66.55;;;35.53;;
48268;SDS011;34088;52.232;5.196;2023-02-15T07:45:54;64.03;;;35.67;;
48268;SDS011;34088;52.232;5.196;2023-02-15T07:48:23;68.50;;;36.53;;
48268;SDS011;34088;52.232;5.196;2023-02-15T07:53:14;67.82;;;35.80;;
48268;SDS011;34088;52.232;5.196;2023-02-15T07:55:39;62.80;;;34.75;;
48268;SDS011;34088;52.232;5.196;2023-02-15T08:00:30;63.72;;;35.10;;
48268;SDS011;34088;52.232;5.196;2023-02-15T08:03:16;61.97;;;35.13;;
48268;SDS011;34088;52.232;5.196;2023-02-15T08:08:08;59.23;;;34.53;;
48268;SDS011;34088;52.232;5.196;2023-02-15T08:10:56;68.70;;;34.20;;
48268;SDS011;34088;52.232;5.196;2023-02-15T08:13:42;65.15;;;36.25;;
48268;SDS011;34088;52.232;5.196;2023-02-15T08:16:18;66.80;;;36.55;;
48268;SDS011;34088;52.232;5.196;2023-02-15T08:18:54;69.38;;;37.08;;
48268;SDS011;34088;52.232;5.196;2023-02-15T08:21:21;69.30;;;37.10;;
48268;SDS011;34088;52.232;5.196;2023-02-15T08:23:47;71.70;;;38.63;;
48268;SDS011;34088;52.232;5.196;2023-02-15T08:28:39;71.63;;;36.75;;
48268;SDS011;34088;52.232;5.196;2023-02-15T08:31:09;71.55;;;37.15;;
48268;SDS011;34088;52.232;5.196;2023-02-15T08:33:36;65.55;;;37.33;;
48268;SDS011;34088;52.232;5.196;2023-02-15T08:36:06;63.17;;;37.15;;
48268;SDS011;34088;52.232;5.196;2023-02-15T08:38:34;62.97;;;36.80;;
48268;SDS011;34088;52.232;5.196;2023-02-15T08:46:04;61.67;;;35.28;;
48268;SDS011;34088;52.232;5.196;2023-02-15T08:48:30;67.43;;;37.00;;
48268;SDS011;34088;52.232;5.196;2023-02-15T08:53:21;67.30;;;36.78;;
48268;SDS011;34088;52.232;5.196;2023-02-15T08:55:47;67.22;;;36.65;;
48268;SDS011;34088;52.232;5.196;2023-02-15T08:58:20;68.40;;;37.95;;
48268;SDS011;34088;52.232;5.196;2023-02-15T09:03:11;65.60;;;36.42;;
48268;SDS011;34088;52.232;5.196;2023-02-15T09:05:36;65.68;;;36.35;;
48268;SDS011;34088;52.232;5.196;2023-02-15T09:10:27;59.90;;;35.08;;
48268;SDS011;34088;52.232;5.196;2023-02-15T09:12:53;65.68;;;36.17;;
48268;SDS011;34088;52.232;5.196;2023-02-15T09:15:18;59.00;;;34.95;;
48268;SDS011;34088;52.232;5.196;2023-02-15T09:17:44;56.85;;;35.47;;
48268;SDS011;34088;52.232;5.196;2023-02-15T09:20:09;55.90;;;33.72;;
48268;SDS011;34088;52.232;5.196;2023-02-15T09:25:00;58.22;;;35.10;;
48268;SDS011;34088;52.232;5.196;2023-02-15T09:27:26;58.67;;;34.47;;
48268;SDS011;34088;52.232;5.196;2023-02-15T09:29:51;57.65;;;34.53;;
48268;SDS011;34088;52.232;5.196;2023-02-15T09:32:17;55.83;;;34.08;;
48268;SDS011;34088;52.232;5.196;2023-02-15T09:34:43;59.17;;;35.67;;
48268;SDS011;34088;52.232;5.196;2023-02-15T09:39:34;59.03;;;35.70;;
48268;SDS011;34088;52.232;5.196;2023-02-15T09:42:10;60.13;;;36.15;;
48268;SDS011;34088;52.232;5.196;2023-02-15T09:44:53;58.45;;;36.25;;
48268;SDS011;34088;52.232;5.196;2023-02-15T10:01:08;55.85;;;34.72;;
48268;SDS011;34088;52.232;5.196;2023-02-15T10:12:15;57.15;;;34.83;;
48268;SDS011;34088;52.232;5.196;2023-02-15T10:17:29;60.92;;;34.00;;
48268;SDS011;34088;52.232;5.196;2023-02-15T10:25:28;57.97;;;34.92;;
48268;SDS011;34088;52.232;5.196;2023-02-15T10:28:11;55.20;;;33.22;;
48268;SDS011;34088;52.232;5.196;2023-02-15T10:30:49;52.60;;;33.22;;
48268;SDS011;34088;52.232;5.196;2023-02-15T10:38:50;54.17;;;32.75;;
48268;SDS011;34088;52.232;5.196;2023-02-15T10:52:46;59.47;;;33.77;;
48268;SDS011;34088;52.232;5.196;2023-02-15T11:00:52;54.45;;;32.08;;
48268;SDS011;34088;52.232;5.196;2023-02-15T11:06:19;55.03;;;33.17;;
48268;SDS011;34088;52.232;5.196;2023-02-15T11:08:47;55.65;;;32.58;;
48268;SDS011;34088;52.232;5.196;2023-02-15T11:11:20;55.15;;;36.30;;
48268;SDS011;34088;52.232;5.196;2023-02-15T11:13:48;54.17;;;34.75;;
48268;SDS011;34088;52.232;5.196;2023-02-15T11:16:17;59.63;;;36.63;;
48268;SDS011;34088;52.232;5.196;2023-02-15T11:18:57;58.40;;;36.20;;
48268;SDS011;34088;52.232;5.196;2023-02-15T11:23:57;57.40;;;34.97;;
48268;SDS011;34088;52.232;5.196;2023-02-15T11:26:28;57.17;;;35.08;;
48268;SDS011;34088;52.232;5.196;2023-02-15T11:31:36;56.92;;;34.25;;
48268;SDS011;34088;52.232;5.196;2023-02-15T11:34:51;58.38;;;35.38;;
48268;SDS011;34088;52.232;5.196;2023-02-15T11:37:03;60.55;;;35.22;;
48268;SDS011;34088;52.232;5.196;2023-02-15T11:39:31;60.97;;;36.25;;
48268;SDS011;34088;52.232;5.196;2023-02-15T11:42:04;57.67;;;35.28;;
48268;SDS011;34088;52.232;5.196;2023-02-15T11:44:35;59.75;;;35.63;;
48268;SDS011;34088;52.232;5.196;2023-02-15T11:47:07;58.97;;;35.92;;
48268;SDS011;34088;52.232;5.196;2023-02-15T11:49:34;61.65;;;37.58;;
48268;SDS011;34088;52.232;5.196;2023-02-15T11:52:01;62.85;;;37.42;;
48268;SDS011;34088;52.232;5.196;2023-02-15T11:54:31;59.03;;;37.72;;
48268;SDS011;34088;52.232;5.196;2023-02-15T11:57:02;55.85;;;36.05;;
48268;SDS011;34088;52.232;5.196;2023-02-15T11:59:37;58.42;;;36.20;;
48268;SDS011;34088;52.232;5.196;2023-02-15T12:02:17;59.92;;;36.53;;
48268;SDS011;34088;52.232;5.196;2023-02-15T12:04:47;62.30;;;37.13;;
48268;SDS011;34088;52.232;5.196;2023-02-15T12:07:36;59.42;;;37.13;;
48268;SDS011;34088;52.232;5.196;2023-02-15T12:10:27;58.88;;;36.53;;
48268;SDS011;34088;52.232;5.196;2023-02-15T12:13:11;59.25;;;37.30;;
48268;SDS011;34088;52.232;5.196;2023-02-15T12:15:51;60.50;;;37.17;;
48268;SDS011;34088;52.232;5.196;2023-02-15T12:20:58;58.13;;;34.92;;
48268;SDS011;34088;52.232;5.196;2023-02-15T12:23:25;58.50;;;36.00;;
48268;SDS011;34088;52.232;5.196;2023-02-15T12:25:53;59.67;;;36.35;;
48268;SDS011;34088;52.232;5.196;2023-02-15T12:28:25;56.10;;;35.05;;
48268;SDS011;34088;52.232;5.196;2023-02-15T12:31:19;59.85;;;36.72;;
48268;SDS011;34088;52.232;5.196;2023-02-15T12:36:46;56.42;;;36.47;;
48268;SDS011;34088;52.232;5.196;2023-02-15T12:39:22;60.33;;;38.33;;
48268;SDS011;34088;52.232;5.196;2023-02-15T12:44:38;65.03;;;40.35;;
48268;SDS011;34088;52.232;5.196;2023-02-15T12:47:17;62.25;;;38.38;;
48268;SDS011;34088;52.232;5.196;2023-02-15T12:49:45;59.03;;;36.95;;
48268;SDS011;34088;52.232;5.196;2023-02-15T12:52:36;60.08;;;37.00;;
48268;SDS011;34088;52.232;5.196;2023-02-15T12:55:18;56.55;;;36.63;;
48268;SDS011;34088;52.232;5.196;2023-02-15T12:58:04;57.47;;;41.13;;
48268;SDS011;34088;52.232;5.196;2023-02-15T13:01:10;59.22;;;38.15;;
48268;SDS011;34088;52.232;5.196;2023-02-15T13:06:23;58.25;;;37.28;;
48268;SDS011;34088;52.232;5.196;2023-02-15T13:08:49;55.17;;;36.40;;
48268;SDS011;34088;52.232;5.196;2023-02-15T13:11:26;59.58;;;38.00;;
48268;SDS011;34088;52.232;5.196;2023-02-15T13:13:59;59.40;;;37.30;;
48268;SDS011;34088;52.232;5.196;2023-02-15T13:16:31;64.10;;;37.97;;
48268;SDS011;34088;52.232;5.196;2023-02-15T13:19:04;60.50;;;38.25;;
48268;SDS011;34088;52.232;5.196;2023-02-15T13:21:41;58.40;;;37.17;;
48268;SDS011;34088;52.232;5.196;2023-02-15T13:24:22;59.30;;;38.85;;
48268;SDS011;34088;52.232;5.196;2023-02-15T13:26:51;62.63;;;39.33;;
48268;SDS011;34088;52.232;5.196;2023-02-15T13:29:21;59.92;;;38.38;;
48268;SDS011;34088;52.232;5.196;2023-02-15T13:31:51;62.30;;;39.33;;
48268;SDS011;34088;52.232;5.196;2023-02-15T13:34:20;60.33;;;39.35;;
48268;SDS011;34088;52.232;5.196;2023-02-15T13:42:05;62.08;;;40.83;;
48268;SDS011;34088;52.232;5.196;2023-02-15T13:47:27;61.53;;;40.65;;
48268;SDS011;34088;52.232;5.196;2023-02-15T13:50:04;61.90;;;38.50;;
48268;SDS011;34088;52.232;5.196;2023-02-15T13:53:11;63.30;;;39.25;;
48268;SDS011;34088;52.232;5.196;2023-02-15T13:55:52;55.40;;;36.33;;
48268;SDS011;34088;52.232;5.196;2023-02-15T14:01:10;61.63;;;38.17;;
48268;SDS011;34088;52.232;5.196;2023-02-15T14:06:58;65.67;;;39.90;;
48268;SDS011;34088;52.232;5.196;2023-02-15T14:12:16;60.42;;;40.05;;
48268;SDS011;34088;52.232;5.196;2023-02-15T14:14:59;60.13;;;39.30;;
48268;SDS011;34088;52.232;5.196;2023-02-15T14:20:24;59.20;;;38.60;;
48268;SDS011;34088;52.232;5.196;2023-02-15T14:29:04;63.40;;;38.40;;
48268;SDS011;34088;52.232;5.196;2023-02-15T14:31:52;61.53;;;39.72;;
48268;SDS011;34088;52.232;5.196;2023-02-15T14:36:50;60.85;;;37.85;;
48268;SDS011;34088;52.232;5.196;2023-02-15T14:42:43;63.13;;;38.88;;
48268;SDS011;34088;52.232;5.196;2023-02-15T14:48:02;59.08;;;39.03;;
48268;SDS011;34088;52.232;5.196;2023-02-15T14:50:40;62.15;;;40.42;;
48268;SDS011;34088;52.232;5.196;2023-02-15T14:53:15;59.05;;;37.28;;
48268;SDS011;34088;52.232;5.196;2023-02-15T14:55:46;60.75;;;39.55;;
48268;SDS011;34088;52.232;5.196;2023-02-15T14:58:12;65.80;;;39.13;;
48268;SDS011;34088;52.232;5.196;2023-02-15T15:00:38;60.45;;;40.13;;
48268;SDS011;34088;52.232;5.196;2023-02-15T15:03:11;62.13;;;40.05;;
48268;SDS011;34088;52.232;5.196;2023-02-15T15:05:47;62.58;;;39.53;;
48268;SDS011;34088;52.232;5.196;2023-02-15T15:08:22;65.53;;;39.90;;
48268;SDS011;34088;52.232;5.196;2023-02-15T15:10:57;60.67;;;39.80;;
48268;SDS011;34088;52.232;5.196;2023-02-15T15:14:01;64.75;;;38.38;;
48268;SDS011;34088;52.232;5.196;2023-02-15T15:19:01;63.58;;;39.33;;
48268;SDS011;34088;52.232;5.196;2023-02-15T15:24:45;66.63;;;41.03;;
48268;SDS011;34088;52.232;5.196;2023-02-15T15:27:36;62.33;;;40.53;;
48268;SDS011;34088;52.232;5.196;2023-02-15T15:38:20;63.78;;;41.15;;
48268;SDS011;34088;52.232;5.196;2023-02-15T15:49:16;65.75;;;40.53;;
48268;SDS011;34088;52.232;5.196;2023-02-15T15:51:44;65.95;;;41.38;;
48268;SDS011;34088;52.232;5.196;2023-02-15T15:54:15;65.60;;;41.10;;
48268;SDS011;34088;52.232;5.196;2023-02-15T15:56:46;61.97;;;40.22;;
48268;SDS011;34088;52.232;5.196;2023-02-15T15:59:18;69.50;;;41.40;;
48268;SDS011;34088;52.232;5.196;2023-02-15T16:01:46;65.97;;;40.97;;
48268;SDS011;34088;52.232;5.196;2023-02-15T16:04:17;69.90;;;41.90;;
48268;SDS011;34088;52.232;5.196;2023-02-15T16:06:49;65.72;;;42.47;;
48268;SDS011;34088;52.232;5.196;2023-02-15T16:09:19;66.45;;;42.47;;
48268;SDS011;34088;52.232;5.196;2023-02-15T16:11:46;60.85;;;39.92;;
48268;SDS011;34088;52.232;5.196;2023-02-15T16:14:25;65.97;;;41.65;;
48268;SDS011;34088;52.232;5.196;2023-02-15T16:16:55;65.38;;;41.30;;
48268;SDS011;34088;52.232;5.196;2023-02-15T16:19:35;66.32;;;40.55;;
48268;SDS011;34088;52.232;5.196;2023-02-15T16:22:13;65.43;;;40.60;;
48268;SDS011;34088;52.232;5.196;2023-02-15T16:29:45;70.47;;;43.13;;
48268;SDS011;34088;52.232;5.196;2023-02-15T16:32:21;67.30;;;42.38;;
48268;SDS011;34088;52.232;5.196;2023-02-15T16:37:23;65.95;;;41.92;;
48268;SDS011;34088;52.232;5.196;2023-02-15T16:39:52;67.88;;;41.78;;
48268;SDS011;34088;52.232;5.196;2023-02-15T16:42:20;68.72;;;41.63;;
48268;SDS011;34088;52.232;5.196;2023-02-15T16:44:51;73.20;;;44.58;;
48268;SDS011;34088;52.232;5.196;2023-02-15T16:47:22;67.57;;;42.63;;
48268;SDS011;34088;52.232;5.196;2023-02-15T16:49:50;70.72;;;42.95;;
48268;SDS011;34088;52.232;5.196;2023-02-15T16:52:20;74.65;;;42.95;;
48268;SDS011;34088;52.232;5.196;2023-02-15T16:54:50;67.00;;;43.65;;
48268;SDS011;34088;52.232;5.196;2023-02-15T16:57:23;72.32;;;44.17;;
48268;SDS011;34088;52.232;5.196;2023-02-15T17:00:02;74.05;;;45.20;;
48268;SDS011;34088;52.232;5.196;2023-02-15T17:03:04;66.28;;;42.30;;
48268;SDS011;34088;52.232;5.196;2023-02-15T17:13:27;69.78;;;44.17;;
48268;SDS011;34088;52.232;5.196;2023-02-15T17:18:25;71.05;;;44.92;;
48268;SDS011;34088;52.232;5.196;2023-02-15T17:20:53;69.97;;;43.83;;
48268;SDS011;34088;52.232;5.196;2023-02-15T17:25:51;69.25;;;43.40;;
48268;SDS011;34088;52.232;5.196;2023-02-15T17:28:18;72.03;;;44.03;;
48268;SDS011;34088;52.232;5.196;2023-02-15T17:30:45;77.57;;;45.25;;
48268;SDS011;34088;52.232;5.196;2023-02-15T17:33:22;71.63;;;44.50;;
48268;SDS011;34088;52.232;5.196;2023-02-15T17:36:04;70.75;;;42.00;;
48268;SDS011;34088;52.232;5.196;2023-02-15T17:38:35;71.72;;;42.45;;
48268;SDS011;34088;52.232;5.196;2023-02-15T17:41:01;71.20;;;43.42;;
48268;SDS011;34088;52.232;5.196;2023-02-15T17:43:27;72.07;;;44.03;;
48268;SDS011;34088;52.232;5.196;2023-02-15T17:45:53;71.32;;;44.35;;
48268;SDS011;34088;52.232;5.196;2023-02-15T17:48:32;68.68;;;40.95;;
48268;SDS011;34088;52.232;5.196;2023-02-15T17:51:00;74.75;;;42.78;;
48268;SDS011;34088;52.232;5.196;2023-02-15T17:53:27;77.90;;;44.08;;
48268;SDS011;34088;52.232;5.196;2023-02-15T17:55:53;69.65;;;43.50;;
48268;SDS011;34088;52.232;5.196;2023-02-15T17:58:18;69.25;;;41.72;;
48268;SDS011;34088;52.232;5.196;2023-02-15T18:00:45;72.10;;;43.20;;
48268;SDS011;34088;52.232;5.196;2023-02-15T18:03:39;71.30;;;42.30;;
48268;SDS011;34088;52.232;5.196;2023-02-15T18:06:27;70.97;;;42.08;;
48268;SDS011;34088;52.232;5.196;2023-02-15T18:09:12;70.32;;;42.13;;
48268;SDS011;34088;52.232;5.196;2023-02-15T18:11:58;68.57;;;41.90;;
48268;SDS011;34088;52.232;5.196;2023-02-15T18:14:24;67.25;;;40.88;;
48268;SDS011;34088;52.232;5.196;2023-02-15T18:16:49;70.93;;;42.90;;
48268;SDS011;34088;52.232;5.196;2023-02-15T18:19:22;68.00;;;41.67;;
48268;SDS011;34088;52.232;5.196;2023-02-15T18:21:49;71.20;;;43.10;;
48268;SDS011;34088;52.232;5.196;2023-02-15T18:24:18;73.97;;;43.00;;
48268;SDS011;34088;52.232;5.196;2023-02-15T18:26:45;73.13;;;43.95;;
48268;SDS011;34088;52.232;5.196;2023-02-15T18:29:11;71.80;;;43.97;;
48268;SDS011;34088;52.232;5.196;2023-02-15T18:31:37;70.78;;;43.55;;
48268;SDS011;34088;52.232;5.196;2023-02-15T18:34:02;70.82;;;42.38;;
48268;SDS011;34088;52.232;5.196;2023-02-15T18:36:29;73.38;;;43.75;;
48268;SDS011;34088;52.232;5.196;2023-02-15T18:38:56;73.05;;;43.30;;
48268;SDS011;34088;52.232;5.196;2023-02-15T18:41:23;73.72;;;44.30;;
48268;SDS011;34088;52.232;5.196;2023-02-15T18:43:49;77.07;;;43.83;;
48268;SDS011;34088;52.232;5.196;2023-02-15T18:46:16;70.97;;;44.00;;
48268;SDS011;34088;52.232;5.196;2023-02-15T18:48:42;77.82;;;46.25;;
48268;SDS011;34088;52.232;5.196;2023-02-15T18:51:21;75.57;;;43.58;;
48268;SDS011;34088;52.232;5.196;2023-02-15T18:53:48;73.85;;;44.65;;
48268;SDS011;34088;52.232;5.196;2023-02-15T18:56:16;75.63;;;44.85;;
48268;SDS011;34088;52.232;5.196;2023-02-15T18:58:43;74.43;;;44.08;;
48268;SDS011;34088;52.232;5.196;2023-02-15T19:01:12;74.95;;;44.92;;
48268;SDS011;34088;52.232;5.196;2023-02-15T19:03:41;65.53;;;42.30;;
48268;SDS011;34088;52.232;5.196;2023-02-15T19:06:10;72.32;;;44.33;;
48268;SDS011;34088;52.232;5.196;2023-02-15T19:08:36;73.18;;;44.45;;
48268;SDS011;34088;52.232;5.196;2023-02-15T19:11:02;69.25;;;43.63;;
48268;SDS011;34088;52.232;5.196;2023-02-15T19:13:27;70.70;;;43.10;;
48268;SDS011;34088;52.232;5.196;2023-02-15T19:15:53;74.75;;;44.97;;
48268;SDS011;34088;52.232;5.196;2023-02-15T19:18:19;74.07;;;44.03;;
48268;SDS011;34088;52.232;5.196;2023-02-15T19:20:45;68.88;;;44.30;;
48268;SDS011;34088;52.232;5.196;2023-02-15T19:23:15;70.28;;;42.60;;
48268;SDS011;34088;52.232;5.196;2023-02-15T19:25:43;74.60;;;44.03;;
48268;SDS011;34088;52.232;5.196;2023-02-15T19:28:16;69.40;;;43.05;;
48268;SDS011;34088;52.232;5.196;2023-02-15T19:30:43;69.13;;;42.53;;
48268;SDS011;34088;52.232;5.196;2023-02-15T19:33:13;67.50;;;42.20;;
48268;SDS011;34088;52.232;5.196;2023-02-15T19:35:41;70.55;;;42.92;;
48268;SDS011;34088;52.232;5.196;2023-02-15T19:38:10;69.57;;;42.13;;
48268;SDS011;34088;52.232;5.196;2023-02-15T19:40:44;71.85;;;42.30;;
48268;SDS011;34088;52.232;5.196;2023-02-15T19:43:17;75.45;;;43.42;;
48268;SDS011;34088;52.232;5.196;2023-02-15T19:45:44;71.25;;;44.55;;
48268;SDS011;34088;52.232;5.196;2023-02-15T19:48:13;66.93;;;41.65;;
48268;SDS011;34088;52.232;5.196;2023-02-15T19:50:39;66.40;;;42.47;;
48268;SDS011;34088;52.232;5.196;2023-02-15T19:53:08;71.10;;;41.70;;
48268;SDS011;34088;52.232;5.196;2023-02-15T19:55:44;69.20;;;41.78;;
48268;SDS011;34088;52.232;5.196;2023-02-15T19:58:11;70.05;;;42.80;;
48268;SDS011;34088;52.232;5.196;2023-02-15T20:00:37;70.20;;;42.17;;
48268;SDS011;34088;52.232;5.196;2023-02-15T20:03:03;67.90;;;40.92;;
48268;SDS011;34088;52.232;5.196;2023-02-15T20:05:29;67.68;;;41.08;;
48268;SDS011;34088;52.232;5.196;2023-02-15T20:07:58;71.47;;;42.15;;
48268;SDS011;34088;52.232;5.196;2023-02-15T20:10:27;71.85;;;42.53;;